Time;durP1;ratioP1;P1;durP2;ratioP2;P2;SDS_P1;SDS_P2;PMS_P1;PMS_P2;Temp;Humidity;BMP_temperature;BMP_pressure;BME280_temperature;BME280_humidity;BME280_pressure;Samples;Min_cycle;Max_cycle;Signal;HPM_P1;HPM_P2
2022/01/18 00:01:52;;;;;;;10.43;3.10;;;;;;;;;;5070201;28;20051;-74
2022/01/18 00:04:18;;;;;;;9.13;3.20;;;;;;;;;;5068164;28;20020;-75
2022/01/18 00:06:48;;;;;;;15.80;3.27;;;;;;;;;;5067340;28;20032;-74
2022/01/18 00:09:14;;;;;;;10.37;2.83;;;;;;;;;;5069130;28;20124;-74
2022/01/18 00:11:48;;;;;;;14.27;3.60;;;;;;;;;;5068702;28;20081;-74
2022/01/18 00:14:41;;;;;;;11.90;3.17;;;;;;;;;;5067346;28;20033;-76
2022/01/18 00:17:18;;;;;;;9.50;2.33;;;;;;;;;;5048275;28;20028;-75
2022/01/18 00:19:53;;;;;;;11.83;2.67;;;;;;;;;;5048757;28;20485;-76
2022/01/18 00:22:19;;;;;;;10.67;3.90;;;;;;;;;;5047603;28;20025;-76
2022/01/18 00:24:45;;;;;;;12.83;3.00;;;;;;;;;;5047045;28;20059;-74
2022/01/18 00:27:14;;;;;;;8.87;3.30;;;;;;;;;;5047823;28;20548;-76
2022/01/18 00:29:52;;;;;;;11.27;3.37;;;;;;;;;;5051487;28;20383;-74
2022/01/18 00:32:35;;;;;;;15.40;3.23;;;;;;;;;;5067826;28;20025;-75
2022/01/18 00:35:01;;;;;;;14.37;3.07;;;;;;;;;;5052930;28;20128;-74
2022/01/18 00:37:38;;;;;;;8.80;3.17;;;;;;;;;;5067641;28;20304;-75
2022/01/18 00:40:06;;;;;;;17.87;3.60;;;;;;;;;;5068946;28;20032;-75
2022/01/18 00:42:32;;;;;;;9.87;3.00;;;;;;;;;;5070833;28;20033;-75
2022/01/18 00:44:58;;;;;;;10.30;3.00;;;;;;;;;;5072373;28;20028;-74
2022/01/18 00:47:24;;;;;;;13.87;3.77;;;;;;;;;;5072425;28;20388;-75
2022/01/18 00:50:10;;;;;;;8.10;2.90;;;;;;;;;;5072160;28;20503;-74
2022/01/18 00:52:41;;;;;;;12.10;3.03;;;;;;;;;;5072299;28;20020;-76
2022/01/18 00:55:07;;;;;;;10.47;3.17;;;;;;;;;;5072244;28;20414;-74
2022/01/18 00:57:32;;;;;;;9.20;3.13;;;;;;;;;;5070494;28;20063;-75
2022/01/18 00:59:59;;;;;;;8.63;2.97;;;;;;;;;;5071771;28;20063;-75
2022/01/18 01:02:25;;;;;;;10.83;3.33;;;;;;;;;;5071946;28;20021;-74
2022/01/18 01:04:50;;;;;;;9.37;3.17;;;;;;;;;;5071841;28;20445;-75
2022/01/18 01:07:19;;;;;;;13.80;3.77;;;;;;;;;;5071845;28;20107;-75
2022/01/18 01:09:44;;;;;;;13.73;2.93;;;;;;;;;;5071885;28;20355;-74
2022/01/18 01:12:11;;;;;;;12.87;3.03;;;;;;;;;;5070440;28;20029;-75
2022/01/18 01:14:39;;;;;;;7.33;2.30;;;;;;;;;;5070193;28;20020;-76
2022/01/18 01:31:59;;;;;;;9.73;3.10;;;;;;;;;;5071367;28;20036;-73
2022/01/18 01:36:39;;;;;;;5.67;2.20;;;;;;;;;;5078202;28;20039;-74
2022/01/18 01:42:03;;;;;;;11.77;3.00;;;;;;;;;;5071554;28;20153;-74
2022/01/18 01:44:47;;;;;;;13.37;3.03;;;;;;;;;;5071985;28;20020;-74
2022/01/18 01:47:18;;;;;;;17.73;2.80;;;;;;;;;;5070328;28;20464;-74
2022/01/18 01:49:44;;;;;;;13.17;3.23;;;;;;;;;;5070237;28;20102;-74
2022/01/18 01:52:11;;;;;;;13.60;2.97;;;;;;;;;;5084962;28;20032;-74
2022/01/18 01:54:38;;;;;;;10.67;2.77;;;;;;;;;;5089084;28;20453;-74
2022/01/18 01:57:05;;;;;;;14.37;3.50;;;;;;;;;;5090097;28;20111;-74
2022/01/18 01:59:31;;;;;;;16.00;3.20;;;;;;;;;;5090102;28;20028;-73
2022/01/18 02:01:56;;;;;;;10.43;2.30;;;;;;;;;;5071800;28;20032;-74
2022/01/18 02:04:22;;;;;;;15.43;3.03;;;;;;;;;;5051030;28;20100;-74
2022/01/18 02:06:47;;;;;;;9.80;2.97;;;;;;;;;;5049889;28;20060;-74
2022/01/18 02:09:13;;;;;;;11.20;2.77;;;;;;;;;;5049711;28;20052;-74
2022/01/18 02:11:38;;;;;;;10.33;2.77;;;;;;;;;;5049557;28;20111;-74
2022/01/18 02:14:13;;;;;;;13.57;3.50;;;;;;;;;;5050604;28;20050;-74
2022/01/18 02:22:06;;;;;;;16.73;4.17;;;;;;;;;;5071050;28;20078;-73
2022/01/18 02:24:32;;;;;;;17.30;3.90;;;;;;;;;;5069645;28;20028;-75
2022/01/18 02:26:57;;;;;;;17.43;3.93;;;;;;;;;;5069340;28;20024;-74
2022/01/18 02:29:23;;;;;;;13.90;3.33;;;;;;;;;;5069567;28;20512;-77
2022/01/18 02:31:49;;;;;;;8.93;2.67;;;;;;;;;;5070291;28;20055;-74
2022/01/18 02:34:18;;;;;;;10.17;2.47;;;;;;;;;;5070512;28;20051;-74
2022/01/18 02:36:44;;;;;;;7.80;2.47;;;;;;;;;;5070755;28;20039;-75
2022/01/18 02:39:11;;;;;;;9.37;3.30;;;;;;;;;;5069711;28;20020;-74
2022/01/18 02:41:38;;;;;;;8.07;3.03;;;;;;;;;;5070654;28;20024;-75
2022/01/18 02:44:12;;;;;;;13.40;2.93;;;;;;;;;;5070251;28;20480;-73
2022/01/18 02:46:39;;;;;;;10.13;3.23;;;;;;;;;;5072096;28;20103;-74
2022/01/18 02:49:06;;;;;;;17.13;3.07;;;;;;;;;;5090512;28;20028;-75
2022/01/18 02:51:32;;;;;;;12.97;4.20;;;;;;;;;;5089314;28;20046;-75
2022/01/18 02:54:00;;;;;;;15.60;3.80;;;;;;;;;;5090515;28;20035;-75
2022/01/18 02:56:28;;;;;;;7.23;3.17;;;;;;;;;;5090027;28;20034;-74
2022/01/18 02:59:08;;;;;;;14.53;3.30;;;;;;;;;;5090839;28;20032;-75
2022/01/18 03:04:18;;;;;;;12.37;3.77;;;;;;;;;;5070019;28;20027;-74
2022/01/18 03:06:44;;;;;;;11.87;3.33;;;;;;;;;;5068599;28;20032;-74
2022/01/18 03:09:09;;;;;;;14.47;3.63;;;;;;;;;;5069896;28;20021;-74
2022/01/18 03:11:35;;;;;;;6.83;2.53;;;;;;;;;;5070060;28;20016;-75
2022/01/18 03:14:01;;;;;;;16.03;3.67;;;;;;;;;;5068486;28;20063;-75
2022/01/18 03:16:27;;;;;;;18.27;4.20;;;;;;;;;;5070731;28;20070;-74
2022/01/18 03:18:52;;;;;;;19.23;3.13;;;;;;;;;;5089969;28;20055;-74
2022/01/18 03:21:18;;;;;;;8.40;2.93;;;;;;;;;;5088661;28;20038;-74
2022/01/18 03:23:51;;;;;;;13.40;3.53;;;;;;;;;;5090037;28;20077;-74
2022/01/18 03:26:18;;;;;;;;;;;;;;;;;;5089245;28;20023;-75
2022/01/18 03:28:43;;;;;;;11.83;3.07;;;;;;;;;;5105641;28;19912;-75
2022/01/18 03:31:09;;;;;;;8.97;3.13;;;;;;;;;;5088512;28;20047;-74
2022/01/18 03:33:34;;;;;;;16.60;3.80;;;;;;;;;;5070117;28;20028;-74
2022/01/18 03:36:00;;;;;;;18.93;3.70;;;;;;;;;;5069735;28;20032;-75
2022/01/18 03:38:30;;;;;;;15.00;4.30;;;;;;;;;;5070100;28;20434;-74
2022/01/18 03:41:01;;;;;;;18.27;4.57;;;;;;;;;;5068507;28;20028;-76
2022/01/18 03:43:28;;;;;;;10.37;3.47;;;;;;;;;;5072866;28;20481;-76
2022/01/18 03:46:00;;;;;;;14.47;3.90;;;;;;;;;;5071172;28;20027;-76
2022/01/18 03:48:32;;;;;;;9.60;3.55;;;;;;;;;;5067914;28;20023;-75
2022/01/18 03:50:59;;;;;;;15.27;5.07;;;;;;;;;;5068219;28;20071;-76
2022/01/18 03:53:25;;;;;;;12.73;3.63;;;;;;;;;;5071492;28;20063;-77
2022/01/18 03:55:51;;;;;;;17.13;4.17;;;;;;;;;;5070172;28;20060;-76
2022/01/18 03:58:17;;;;;;;12.93;4.73;;;;;;;;;;5070843;28;20020;-77
2022/01/18 04:00:42;;;;;;;14.97;4.20;;;;;;;;;;5070000;28;20100;-76
2022/01/18 04:03:08;;;;;;;13.40;4.37;;;;;;;;;;5067962;28;20086;-75
2022/01/18 04:05:34;;;;;;;18.13;5.30;;;;;;;;;;5069410;28;20028;-76
2022/01/18 04:07:59;;;;;;;18.17;5.17;;;;;;;;;;5067850;28;20029;-76
2022/01/18 04:10:25;;;;;;;20.13;5.00;;;;;;;;;;5067994;28;20060;-76
2022/01/18 04:12:51;;;;;;;11.20;4.43;;;;;;;;;;5069220;28;20028;-75
2022/01/18 04:15:18;;;;;;;12.90;4.30;;;;;;;;;;5067566;28;20480;-75
2022/01/18 04:18:02;;;;;;;12.73;4.30;;;;;;;;;;5070458;28;20020;-76
2022/01/18 04:30:54;;;;;;;22.77;4.53;;;;;;;;;;5073408;28;20111;-76
2022/01/18 04:33:20;;;;;;;18.03;4.37;;;;;;;;;;5073265;28;20099;-75
2022/01/18 04:35:46;;;;;;;10.53;4.27;;;;;;;;;;5071300;28;20036;-76
2022/01/18 04:38:11;;;;;;;12.57;3.30;;;;;;;;;;5072416;28;20078;-75
2022/01/18 04:40:40;;;;;;;9.33;3.97;;;;;;;;;;5071265;28;20480;-76
2022/01/18 04:48:31;;;;;;;14.93;4.57;;;;;;;;;;5072842;28;20034;-76
2022/01/18 04:51:03;;;;;;;11.10;3.87;;;;;;;;;;5071133;28;20035;-75
2022/01/18 04:53:31;;;;;;;10.50;4.20;;;;;;;;;;5072470;28;20515;-75
2022/01/18 04:56:06;;;;;;;13.20;4.17;;;;;;;;;;5071989;28;20108;-76
2022/01/18 04:58:32;;;;;;;9.83;4.03;;;;;;;;;;5070964;28;20036;-75
2022/01/18 05:01:00;;;;;;;15.03;4.60;;;;;;;;;;5070605;28;20028;-76
2022/01/18 05:03:27;;;;;;;7.57;3.73;;;;;;;;;;5070534;28;20028;-77
2022/01/18 05:05:56;;;;;;;13.43;4.70;;;;;;;;;;5070906;28;20030;-76
2022/01/18 05:08:22;;;;;;;15.77;4.80;;;;;;;;;;5070949;28;20036;-76
2022/01/18 05:10:55;;;;;;;23.53;4.47;;;;;;;;;;5072223;28;20534;-76
2022/01/18 05:14:01;;;;;;;10.43;4.63;;;;;;;;;;5071090;28;20324;-75
2022/01/18 05:21:32;;;;;;;14.60;4.60;;;;;;;;;;5072171;28;20043;-76
2022/01/18 05:23:58;;;;;;;25.30;6.37;;;;;;;;;;5072327;28;20204;-76
2022/01/18 05:26:25;;;;;;;9.30;4.10;;;;;;;;;;5070440;28;20115;-76
2022/01/18 05:28:50;;;;;;;11.17;4.43;;;;;;;;;;5070053;28;20032;-76
2022/01/18 05:31:16;;;;;;;14.77;4.50;;;;;;;;;;5071486;28;20025;-76
2022/01/18 05:33:42;;;;;;;11.37;4.57;;;;;;;;;;5071233;28;20074;-76
2022/01/18 05:36:09;;;;;;;14.23;4.20;;;;;;;;;;5070124;28;20020;-76
2022/01/18 05:38:35;;;;;;;20.17;4.53;;;;;;;;;;5070553;28;20020;-76
2022/01/18 05:41:06;;;;;;;18.10;5.77;;;;;;;;;;5070266;28;20027;-75
2022/01/18 05:43:32;;;;;;;17.63;5.03;;;;;;;;;;5070219;28;20017;-77
2022/01/18 05:45:58;;;;;;;18.80;4.97;;;;;;;;;;5070125;28;20017;-75
2022/01/18 05:48:23;;;;;;;17.30;6.23;;;;;;;;;;5071622;28;20464;-77
2022/01/18 05:50:50;;;;;;;11.87;4.93;;;;;;;;;;5071135;28;20024;-75
2022/01/18 05:53:16;;;;;;;30.73;5.80;;;;;;;;;;5077903;28;20029;-76
2022/01/18 05:55:41;;;;;;;13.03;4.47;;;;;;;;;;5074892;28;20499;-76
2022/01/18 05:58:07;;;;;;;26.20;5.37;;;;;;;;;;5070895;28;20028;-73
2022/01/18 06:00:33;;;;;;;24.20;6.47;;;;;;;;;;5071547;28;20483;-75
2022/01/18 06:03:10;;;;;;;19.27;4.43;;;;;;;;;;5069680;28;20024;-77
2022/01/18 06:08:20;;;;;;;15.80;7.77;;;;;;;;;;5073041;28;20035;-76
2022/01/18 06:10:45;;;;;;;8.53;4.93;;;;;;;;;;5070967;28;20024;-76
2022/01/18 06:13:12;;;;;;;11.87;5.50;;;;;;;;;;5070682;28;20067;-76
2022/01/18 06:15:37;;;;;;;11.77;5.00;;;;;;;;;;5070791;28;20043;-76
2022/01/18 06:18:03;;;;;;;14.33;5.43;;;;;;;;;;5070782;28;20468;-76
2022/01/18 06:20:29;;;;;;;13.90;6.17;;;;;;;;;;5069484;28;20020;-78
2022/01/18 06:22:54;;;;;;;17.60;6.43;;;;;;;;;;5069727;28;20471;-76
2022/01/18 06:25:21;;;;;;;16.13;5.27;;;;;;;;;;5070825;28;20021;-78
2022/01/18 06:27:48;;;;;;;15.53;5.40;;;;;;;;;;5070541;28;20032;-76
2022/01/18 06:30:14;;;;;;;18.97;5.57;;;;;;;;;;5070600;28;20035;-78
2022/01/18 06:32:45;;;;;;;15.33;5.23;;;;;;;;;;5070709;28;20025;-76
2022/01/18 06:35:12;;;;;;;11.73;6.30;;;;;;;;;;5068757;28;20048;-77
2022/01/18 06:37:38;;;;;;;15.63;5.10;;;;;;;;;;5069218;28;20068;-77
2022/01/18 06:40:04;;;;;;;14.37;5.43;;;;;;;;;;5069483;28;20191;-76
2022/01/18 06:42:31;;;;;;;22.10;5.57;;;;;;;;;;5070382;28;20248;-76
2022/01/18 06:44:57;;;;;;;30.33;6.57;;;;;;;;;;5069199;28;20023;-79
2022/01/18 06:47:22;;;;;;;13.80;4.77;;;;;;;;;;5060174;28;20070;-77
2022/01/18 06:49:48;;;;;;;28.13;6.67;;;;;;;;;;5060269;28;20028;-77
2022/01/18 06:52:13;;;;;;;18.00;5.83;;;;;;;;;;5057020;28;20059;-76
2022/01/18 06:54:39;;;;;;;28.17;8.57;;;;;;;;;;5075214;28;20095;-74
2022/01/18 06:57:05;;;;;;;20.00;6.67;;;;;;;;;;5057786;28;20024;-75
2022/01/18 06:59:31;;;;;;;17.97;5.67;;;;;;;;;;5059932;28;20539;-77
2022/01/18 07:01:56;;;;;;;18.10;4.93;;;;;;;;;;5058718;28;20107;-76
2022/01/18 07:04:22;;;;;;;17.57;4.67;;;;;;;;;;5061831;28;20021;-77
2022/01/18 07:06:48;;;;;;;21.57;5.67;;;;;;;;;;5060109;28;20033;-77
2022/01/18 07:09:15;;;;;;;15.97;5.47;;;;;;;;;;5072704;28;20098;-77
2022/01/18 07:11:42;;;;;;;17.67;4.57;;;;;;;;;;5062843;28;20032;-76
2022/01/18 07:14:08;;;;;;;16.07;4.63;;;;;;;;;;5059496;28;20016;-77
2022/01/18 07:16:34;;;;;;;20.20;5.57;;;;;;;;;;5051377;28;20581;-78
2022/01/18 07:19:00;;;;;;;19.97;5.90;;;;;;;;;;5056032;28;20033;-78
2022/01/18 07:21:26;;;;;;;21.17;5.47;;;;;;;;;;5061365;28;20032;-75
2022/01/18 07:23:59;;;;;;;15.17;4.80;;;;;;;;;;5062005;28;20033;-78
2022/01/18 07:26:24;;;;;;;12.60;5.07;;;;;;;;;;5055675;28;20048;-77
2022/01/18 07:28:50;;;;;;;19.10;4.27;;;;;;;;;;5075760;28;20040;-77
2022/01/18 07:31:16;;;;;;;11.10;4.13;;;;;;;;;;5058845;28;20138;-75
2022/01/18 07:33:41;;;;;;;15.20;4.50;;;;;;;;;;5058424;28;20045;-78
2022/01/18 07:36:07;;;;;;;15.73;4.87;;;;;;;;;;5052493;28;20036;-76
2022/01/18 07:38:32;;;;;;;17.37;5.40;;;;;;;;;;5057072;28;20035;-77
2022/01/18 07:40:58;;;;;;;19.67;4.73;;;;;;;;;;5077567;28;20452;-76
2022/01/18 07:43:23;;;;;;;19.60;5.03;;;;;;;;;;5061147;28;20032;-74
2022/01/18 07:45:50;;;;;;;18.13;6.17;;;;;;;;;;5050927;28;20047;-77
2022/01/18 07:48:21;;;;;;;17.03;5.00;;;;;;;;;;5053822;28;20032;-77
2022/01/18 07:50:46;;;;;;;14.70;4.00;;;;;;;;;;5062866;28;20029;-77
2022/01/18 07:53:12;;;;;;;17.80;4.33;;;;;;;;;;5051970;28;20432;-77
2022/01/18 07:55:38;;;;;;;15.20;4.20;;;;;;;;;;5062448;28;20036;-74
2022/01/18 07:58:03;;;;;;;16.67;4.83;;;;;;;;;;5074146;28;20148;-76
2022/01/18 08:00:29;;;;;;;15.77;4.20;;;;;;;;;;5072282;28;20357;-74
2022/01/18 08:02:55;;;;;;;16.63;3.83;;;;;;;;;;5067424;28;20075;-74
2022/01/18 08:05:22;;;;;;;16.20;4.37;;;;;;;;;;5068639;28;20117;-73
2022/01/18 08:07:48;;;;;;;8.20;3.97;;;;;;;;;;5062586;28;20115;-75
2022/01/18 08:10:16;;;;;;;21.60;4.90;;;;;;;;;;5064747;28;20797;-76
2022/01/18 08:12:42;;;;;;;15.57;5.20;;;;;;;;;;5066713;28;20066;-76
2022/01/18 08:15:14;;;;;;;17.27;6.73;;;;;;;;;;5069266;28;20032;-74
2022/01/18 08:17:41;;;;;;;;;;;;;;;;;;5062303;28;20028;-77
2022/01/18 08:20:07;;;;;;;18.40;3.73;;;;;;;;;;5063487;28;20354;-76
2022/01/18 08:22:33;;;;;;;21.27;4.07;;;;;;;;;;5065922;28;20612;-74
2022/01/18 08:24:58;;;;;;;14.80;4.17;;;;;;;;;;5063471;28;20028;-75
2022/01/18 08:27:24;;;;;;;13.43;3.43;;;;;;;;;;5062407;28;20047;-74
2022/01/18 08:29:49;;;;;;;19.47;4.47;;;;;;;;;;5067666;28;20470;-76
2022/01/18 08:32:16;;;;;;;19.60;5.30;;;;;;;;;;5067863;28;20052;-77
2022/01/18 08:34:42;;;;;;;12.93;5.17;;;;;;;;;;5068078;28;20049;-75
2022/01/18 08:37:09;;;;;;;17.83;4.90;;;;;;;;;;5064096;28;20059;-78
2022/01/18 08:39:35;;;;;;;14.13;4.83;;;;;;;;;;5069507;28;20403;-75
2022/01/18 08:42:00;;;;;;;15.77;4.50;;;;;;;;;;5067742;28;20032;-74
2022/01/18 08:44:29;;;;;;;24.83;6.20;;;;;;;;;;5068713;28;20020;-76
2022/01/18 08:46:55;;;;;;;15.77;3.67;;;;;;;;;;5069634;28;20024;-72
2022/01/18 08:49:21;;;;;;;23.87;5.47;;;;;;;;;;5071252;28;20443;-74
2022/01/18 08:51:46;;;;;;;19.10;6.53;;;;;;;;;;5063633;28;20648;-72
2022/01/18 08:54:12;;;;;;;10.40;4.37;;;;;;;;;;5060732;28;20453;-73
2022/01/18 08:56:37;;;;;;;18.87;5.47;;;;;;;;;;5062784;28;20056;-74
2022/01/18 08:59:03;;;;;;;15.50;5.30;;;;;;;;;;5063959;28;21024;-75
2022/01/18 09:01:28;;;;;;;13.53;5.33;;;;;;;;;;5062330;28;20035;-75
2022/01/18 09:03:54;;;;;;;24.70;5.13;;;;;;;;;;5064962;28;20533;-74
2022/01/18 09:06:22;;;;;;;10.93;5.00;;;;;;;;;;5061246;28;20028;-75
2022/01/18 09:08:55;;;;;;;18.73;4.63;;;;;;;;;;5064186;28;20373;-74
2022/01/18 09:11:23;;;;;;;20.77;5.93;;;;;;;;;;5074957;28;20120;-75
2022/01/18 09:13:50;;;;;;;15.87;5.43;;;;;;;;;;5064474;28;20043;-75
2022/01/18 09:16:15;;;;;;;20.20;4.80;;;;;;;;;;5062398;28;20502;-73
2022/01/18 09:18:41;;;;;;;22.40;6.47;;;;;;;;;;5063587;28;20040;-75
2022/01/18 09:21:06;;;;;;;16.30;5.37;;;;;;;;;;5063197;28;20038;-75
2022/01/18 09:23:32;;;;;;;19.60;6.17;;;;;;;;;;5066006;28;20195;-75
2022/01/18 09:25:57;;;;;;;17.90;6.30;;;;;;;;;;5062575;28;20036;-74
2022/01/18 09:28:23;;;;;;;18.17;5.07;;;;;;;;;;5062536;28;20082;-76
2022/01/18 09:30:48;;;;;;;14.37;4.87;;;;;;;;;;5062943;28;20489;-75
2022/01/18 09:33:14;;;;;;;14.37;4.97;;;;;;;;;;5062333;28;20647;-76
2022/01/18 09:35:40;;;;;;;16.23;4.70;;;;;;;;;;5064031;28;20044;-77
2022/01/18 09:38:06;;;;;;;14.23;5.63;;;;;;;;;;5060405;28;20036;-77
2022/01/18 09:40:37;;;;;;;17.57;5.83;;;;;;;;;;5065308;28;20066;-75
2022/01/18 09:43:08;;;;;;;17.90;5.20;;;;;;;;;;5063052;28;20562;-75
2022/01/18 09:45:34;;;;;;;20.55;5.55;;;;;;;;;;5061610;28;20033;-74
2022/01/18 09:48:00;;;;;;;16.80;5.37;;;;;;;;;;5056486;28;20580;-74
2022/01/18 09:50:29;;;;;;;30.67;4.67;;;;;;;;;;5061712;28;20024;-74
2022/01/18 09:52:56;;;;;;;21.40;5.17;;;;;;;;;;5059856;28;20036;-75
2022/01/18 09:55:25;;;;;;;20.77;5.60;;;;;;;;;;5072233;28;22003;-74
2022/01/18 09:57:52;;;;;;;24.73;6.67;;;;;;;;;;5073284;28;20079;-77
2022/01/18 10:00:19;;;;;;;16.03;7.20;;;;;;;;;;5060036;28;20054;-74
2022/01/18 10:02:45;;;;;;;16.13;5.33;;;;;;;;;;5078389;28;20028;-75
2022/01/18 10:05:33;;;;;;;16.53;4.90;;;;;;;;;;5065958;28;20234;-75
2022/01/18 10:08:05;;;;;;;21.50;5.57;;;;;;;;;;5063562;28;20028;-77
2022/01/18 10:10:53;;;;;;;26.47;6.10;;;;;;;;;;5063444;28;20481;-75
2022/01/18 10:13:30;;;;;;;20.93;5.40;;;;;;;;;;5062825;28;20075;-76
2022/01/18 10:16:15;;;;;;;16.60;4.73;;;;;;;;;;5056274;28;20067;-73
2022/01/18 10:18:55;;;;;;;18.33;4.57;;;;;;;;;;5056742;28;20552;-77
2022/01/18 10:21:29;;;;;;;13.90;4.97;;;;;;;;;;5060662;28;20747;-75
2022/01/18 10:24:20;;;;;;;19.10;6.30;;;;;;;;;;5060797;28;20197;-77
2022/01/18 10:26:48;;;;;;;16.52;5.25;;;;;;;;;;5058475;28;20773;-75
2022/01/18 10:29:15;;;;;;;22.17;5.03;;;;;;;;;;5060987;28;20395;-74
2022/01/18 10:31:54;;;;;;;21.07;5.87;;;;;;;;;;5060516;28;20043;-75
2022/01/18 10:36:59;;;;;;;19.73;6.63;;;;;;;;;;5059947;28;20047;-75
2022/01/18 10:39:53;;;;;;;19.63;4.70;;;;;;;;;;5057227;28;20139;-75
2022/01/18 10:42:38;;;;;;;11.73;4.50;;;;;;;;;;5075052;28;20393;-76
2022/01/18 10:45:30;;;;;;;28.90;10.00;;;;;;;;;;5061615;28;20171;-77
2022/01/18 10:48:04;;;;;;;18.23;4.57;;;;;;;;;;5057540;28;20435;-77
2022/01/18 10:50:42;;;;;;;13.17;4.03;;;;;;;;;;5058884;28;20079;-77
2022/01/18 10:53:18;;;;;;;9.87;3.70;;;;;;;;;;5056844;28;20032;-77
2022/01/18 10:55:45;;;;;;;15.53;3.23;;;;;;;;;;5073384;28;20028;-74
2022/01/18 10:58:16;;;;;;;12.20;3.60;;;;;;;;;;5075044;28;20032;-77
2022/01/18 11:00:42;;;;;;;21.33;6.23;;;;;;;;;;5058541;28;20078;-77
2022/01/18 11:03:09;;;;;;;18.80;4.20;;;;;;;;;;5076577;28;20020;-76
2022/01/18 11:05:37;;;;;;;11.83;3.30;;;;;;;;;;5058068;28;20036;-79
2022/01/18 11:08:05;;;;;;;20.20;3.73;;;;;;;;;;5056465;28;20431;-75
2022/01/18 11:10:32;;;;;;;12.60;3.73;;;;;;;;;;5057404;28;20494;-75
2022/01/18 11:13:17;;;;;;;12.30;3.80;;;;;;;;;;5057450;28;20131;-78
2022/01/18 11:15:47;;;;;;;10.97;3.13;;;;;;;;;;5060780;28;20031;-77
2022/01/18 11:18:29;;;;;;;12.47;4.23;;;;;;;;;;5061381;28;20047;-77
2022/01/18 11:20:56;;;;;;;17.20;5.57;;;;;;;;;;5056393;28;20056;-76
2022/01/18 11:23:24;;;;;;;17.67;4.13;;;;;;;;;;5066542;28;20044;-76
2022/01/18 11:25:52;;;;;;;19.33;3.83;;;;;;;;;;5056934;28;20016;-75
2022/01/18 11:28:18;;;;;;;10.40;3.93;;;;;;;;;;5058342;28;20028;-76
2022/01/18 11:30:46;;;;;;;18.00;3.73;;;;;;;;;;5060516;28;20054;-77
2022/01/18 11:33:15;;;;;;;24.27;4.13;;;;;;;;;;5063469;28;20071;-77
2022/01/18 11:36:00;;;;;;;20.67;4.70;;;;;;;;;;5057957;28;20923;-77
2022/01/18 11:38:48;;;;;;;14.90;4.47;;;;;;;;;;5058914;28;20135;-76
2022/01/18 11:41:24;;;;;;;16.03;3.80;;;;;;;;;;5057339;28;20040;-76
2022/01/18 11:43:55;;;;;;;28.87;4.60;;;;;;;;;;5056884;28;20036;-75
2022/01/18 11:46:43;;;;;;;11.87;3.87;;;;;;;;;;5061397;28;20028;-73
2022/01/18 11:49:30;;;;;;;11.40;4.30;;;;;;;;;;5048282;28;20063;-75
2022/01/18 11:51:59;;;;;;;10.57;3.60;;;;;;;;;;5061295;28;20118;-78
2022/01/18 11:57:36;;;;;;;13.68;5.20;;;;;;;;;;5065752;28;20024;-77
2022/01/18 12:00:10;;;;;;;17.27;4.63;;;;;;;;;;5063550;28;20067;-75
2022/01/18 12:02:43;;;;;;;16.30;4.00;;;;;;;;;;5057667;28;20032;-74
2022/01/18 12:05:19;;;;;;;16.60;4.20;;;;;;;;;;5059317;28;20028;-75
2022/01/18 12:07:47;;;;;;;16.20;4.33;;;;;;;;;;5061154;28;20047;-78
2022/01/18 12:10:37;;;;;;;19.23;4.57;;;;;;;;;;5064662;28;20036;-75
2022/01/18 12:13:04;;;;;;;14.20;3.60;;;;;;;;;;5059406;28;20029;-76
2022/01/18 12:15:32;;;;;;;14.73;4.07;;;;;;;;;;5068389;28;20016;-75
2022/01/18 12:18:16;;;;;;;13.33;4.13;;;;;;;;;;5073569;28;20077;-75
2022/01/18 12:20:46;;;;;;;12.93;3.80;;;;;;;;;;5060516;28;20526;-78
2022/01/18 12:23:46;;;;;;;21.60;6.33;;;;;;;;;;5060624;28;20052;-75
2022/01/18 12:26:31;;;;;;;15.73;4.70;;;;;;;;;;5058738;28;20334;-76
2022/01/18 12:34:30;;;;;;;12.40;3.83;;;;;;;;;;5060153;28;21010;-74
2022/01/18 12:37:08;;;;;;;8.70;3.73;;;;;;;;;;5059766;28;20032;-77
2022/01/18 12:40:05;;;;;;;21.13;4.90;;;;;;;;;;5064569;28;20512;-77
2022/01/18 12:45:11;;;;;;;20.27;4.43;;;;;;;;;;5067359;28;20036;-77
2022/01/18 12:48:02;;;;;;;13.53;4.63;;;;;;;;;;5062903;28;20485;-77
2022/01/18 12:50:34;;;;;;;12.90;4.23;;;;;;;;;;5062015;28;20027;-76
2022/01/18 12:53:11;;;;;;;17.27;4.18;;;;;;;;;;5064749;28;20063;-74
2022/01/18 12:55:46;;;;;;;15.33;4.67;;;;;;;;;;5068049;28;20623;-76
2022/01/18 12:58:19;;;;;;;12.83;4.43;;;;;;;;;;5066542;28;20033;-76
2022/01/18 13:00:50;;;;;;;21.30;5.27;;;;;;;;;;5073433;28;20037;-75
2022/01/18 13:03:22;;;;;;;13.48;3.42;;;;;;;;;;5071101;28;20678;-75
2022/01/18 13:05:51;;;;;;;15.70;4.50;;;;;;;;;;5069175;28;20067;-75
2022/01/18 13:08:18;;;;;;;11.47;3.57;;;;;;;;;;5064460;28;20036;-75
2022/01/18 13:10:47;;;;;;;15.27;3.40;;;;;;;;;;5078247;28;20032;-75
2022/01/18 13:13:15;;;;;;;12.57;6.17;;;;;;;;;;5071938;28;20087;-76
2022/01/18 13:26:39;;;;;;;12.37;4.90;;;;;;;;;;5061664;28;20035;-73
2022/01/18 13:29:14;;;;;;;17.43;4.80;;;;;;;;;;5060614;28;20032;-76
2022/01/18 13:31:43;;;;;;;17.43;4.77;;;;;;;;;;5060171;28;20065;-75
2022/01/18 13:34:13;;;;;;;19.87;5.80;;;;;;;;;;5061766;28;20135;-75
2022/01/18 13:37:03;;;;;;;16.63;5.50;;;;;;;;;;5062337;28;20035;-74
2022/01/18 13:39:32;;;;;;;24.03;4.90;;;;;;;;;;5062202;28;20021;-75
2022/01/18 13:42:01;;;;;;;19.57;5.40;;;;;;;;;;5068049;28;20058;-75
2022/01/18 13:44:31;;;;;;;11.80;5.23;;;;;;;;;;5063273;28;20393;-74
2022/01/18 13:47:16;;;;;;;16.00;4.07;;;;;;;;;;5061427;28;20078;-74
2022/01/18 13:49:41;;;;;;;13.57;4.87;;;;;;;;;;5062686;28;20602;-76
2022/01/18 13:52:10;;;;;;;21.03;8.07;;;;;;;;;;5063045;28;20115;-76
2022/01/18 13:54:53;;;;;;;39.80;11.13;;;;;;;;;;5075854;28;20043;-76
2022/01/18 13:57:22;;;;;;;29.27;7.10;;;;;;;;;;5058898;28;20074;-75
2022/01/18 13:59:51;;;;;;;14.97;4.90;;;;;;;;;;5062288;28;20029;-76
2022/01/18 14:02:21;;;;;;;18.20;5.13;;;;;;;;;;5061678;28;20081;-74
2022/01/18 14:05:05;;;;;;;25.27;5.03;;;;;;;;;;5064170;28;20725;-76
2022/01/18 14:07:31;;;;;;;15.73;5.83;;;;;;;;;;5059997;28;20047;-76
2022/01/18 14:09:58;;;;;;;11.67;5.07;;;;;;;;;;5061226;28;20471;-75
2022/01/18 14:12:29;;;;;;;14.03;4.20;;;;;;;;;;5066315;28;20066;-77
2022/01/18 14:14:56;;;;;;;14.23;4.70;;;;;;;;;;5064265;28;20043;-76
2022/01/18 14:17:22;;;;;;;9.00;4.03;;;;;;;;;;5060491;28;20025;-76
2022/01/18 14:19:50;;;;;;;16.43;4.63;;;;;;;;;;5062553;28;20494;-78
2022/01/18 14:22:22;;;;;;;15.43;4.07;;;;;;;;;;5064627;28;20020;-75
2022/01/18 14:24:51;;;;;;;16.67;5.28;;;;;;;;;;5073788;28;20040;-77
2022/01/18 14:27:25;;;;;;;15.13;5.30;;;;;;;;;;5072336;28;20546;-76
2022/01/18 14:29:59;;;;;;;18.10;5.77;;;;;;;;;;5062180;28;20025;-77
2022/01/18 14:32:34;;;;;;;22.03;5.77;;;;;;;;;;5061371;28;20033;-75
2022/01/18 14:35:24;;;;;;;14.27;4.50;;;;;;;;;;5059904;28;20047;-75
2022/01/18 14:38:10;;;;;;;20.63;6.20;;;;;;;;;;5057285;28;20134;-76
2022/01/18 14:40:47;;;;;;;13.83;4.37;;;;;;;;;;5061028;28;20224;-76
2022/01/18 14:43:28;;;;;;;15.53;5.40;;;;;;;;;;5059056;28;20036;-77
2022/01/18 14:48:23;;;;;;;14.43;5.63;;;;;;;;;;5058962;28;20491;-75
2022/01/18 14:50:49;;;;;;;15.77;4.83;;;;;;;;;;5059925;28;20429;-76
2022/01/18 14:53:17;;;;;;;19.90;6.83;;;;;;;;;;5061916;28;20101;-78
2022/01/18 14:55:43;;;;;;;16.17;5.87;;;;;;;;;;5061569;28;20134;-77
2022/01/18 14:58:10;;;;;;;13.87;5.57;;;;;;;;;;5058037;28;20032;-77
2022/01/18 15:00:36;;;;;;;15.20;4.70;;;;;;;;;;5060067;28;20036;-75
2022/01/18 15:03:04;;;;;;;22.30;5.63;;;;;;;;;;5058408;28;20470;-76
2022/01/18 15:05:29;;;;;;;12.50;4.50;;;;;;;;;;5059568;28;20032;-76
2022/01/18 15:07:56;;;;;;;11.30;5.53;;;;;;;;;;5057728;28;20047;-76
2022/01/18 15:10:22;;;;;;;26.03;7.80;;;;;;;;;;5044639;28;20036;-76
2022/01/18 15:12:50;;;;;;;16.20;5.60;;;;;;;;;;5061147;28;20036;-73
2022/01/18 15:15:18;;;;;;;19.60;4.90;;;;;;;;;;5057937;28;20147;-76
2022/01/18 15:17:45;;;;;;;15.47;5.77;;;;;;;;;;5053560;28;20055;-78
2022/01/18 15:20:11;;;;;;;10.80;4.67;;;;;;;;;;5057864;28;20195;-78
2022/01/18 15:22:38;;;;;;;10.90;4.83;;;;;;;;;;5055125;28;20026;-77
2022/01/18 15:25:04;;;;;;;17.10;5.63;;;;;;;;;;5058060;28;20024;-78
2022/01/18 15:27:30;;;;;;;10.70;5.43;;;;;;;;;;5058918;28;20029;-75
2022/01/18 15:29:56;;;;;;;17.30;5.53;;;;;;;;;;5060498;28;20422;-77
2022/01/18 15:32:22;;;;;;;16.50;5.07;;;;;;;;;;5063574;28;20032;-74
2022/01/18 15:34:47;;;;;;;17.57;5.37;;;;;;;;;;5056279;28;20044;-77
2022/01/18 15:37:17;;;;;;;17.43;6.13;;;;;;;;;;5075103;28;20077;-78
2022/01/18 15:39:48;;;;;;;11.57;4.37;;;;;;;;;;5067863;28;20016;-77
2022/01/18 15:42:13;;;;;;;19.00;5.17;;;;;;;;;;5056981;28;20044;-76
2022/01/18 15:44:39;;;;;;;14.17;5.30;;;;;;;;;;5079705;28;20033;-77
2022/01/18 15:47:04;;;;;;;12.87;4.77;;;;;;;;;;5065214;28;20024;-77
2022/01/18 15:49:31;;;;;;;16.97;5.23;;;;;;;;;;5061263;28;20020;-79
2022/01/18 15:51:57;;;;;;;14.87;6.37;;;;;;;;;;5071951;28;20140;-77
2022/01/18 15:54:22;;;;;;;22.07;6.27;;;;;;;;;;5079374;28;20074;-77
2022/01/18 15:56:48;;;;;;;14.90;5.30;;;;;;;;;;5080216;28;20513;-76
2022/01/18 15:59:14;;;;;;;21.30;6.10;;;;;;;;;;5075868;28;20030;-75
2022/01/18 16:01:39;;;;;;;30.83;7.47;;;;;;;;;;5077318;28;20021;-76
2022/01/18 16:04:06;;;;;;;17.97;6.90;;;;;;;;;;5059259;28;20039;-77